Time;durP1;ratioP1;P1;durP2;ratioP2;P2;SDS_P1;SDS_P2;PMS_P1;PMS_P2;Temp;Humidity;BMP_temperature;BMP_pressure;BME280_temperature;BME280_humidity;BME280_pressure;Samples;Min_cycle;Max_cycle;Signal;HPM_P1;HPM_P2
2021/12/15 00:01:42;;;;;;;3.38;2.17;;;9.60;99.90;;;;;;4982770;28;20129;-77
2021/12/15 00:04:08;;;;;;;3.28;2.97;;;9.50;99.90;;;;;;4982682;28;20121;-77
2021/12/15 00:06:36;;;;;;;2.53;2.42;;;9.50;99.90;;;;;;4965366;28;20149;-77
2021/12/15 00:09:06;;;;;;;10.35;3.63;;;9.60;99.90;;;;;;4981728;28;20042;-77
2021/12/15 00:11:36;;;;;;;5.30;2.88;;;9.60;99.90;;;;;;4930123;28;1020393;-77
2021/12/15 00:14:08;;;;;;;4.18;3.38;;;9.60;99.90;;;;;;4983231;28;20108;-77
2021/12/15 00:16:33;;;;;;;6.57;2.97;;;9.60;99.90;;;;;;4982639;28;20093;-77
2021/12/15 00:18:59;;;;;;;3.03;2.00;;;9.60;99.90;;;;;;4983195;28;20684;-77
2021/12/15 00:21:25;;;;;;;3.40;3.10;;;9.60;99.90;;;;;;4982798;28;20038;-77
2021/12/15 00:23:51;;;;;;;3.30;3.00;;;9.60;99.90;;;;;;4965264;28;20112;-78
2021/12/15 00:26:17;;;;;;;3.90;3.50;;;9.60;99.90;;;;;;4983369;28;20043;-77
2021/12/15 00:28:44;;;;;;;5.47;2.90;;;9.60;99.90;;;;;;4986791;28;20041;-77
2021/12/15 00:31:11;;;;;;;2.60;2.47;;;9.60;99.90;;;;;;4984925;28;20089;-77
2021/12/15 00:33:39;;;;;;;4.22;3.83;;;9.60;99.90;;;;;;5002613;28;20037;-76
2021/12/15 00:36:05;;;;;;;2.67;2.58;;;9.60;99.90;;;;;;4985123;28;20046;-77
2021/12/15 00:38:32;;;;;;;4.47;2.60;;;9.50;99.90;;;;;;4984523;28;20046;-77
2021/12/15 00:40:57;;;;;;;2.67;1.70;;;9.50;99.90;;;;;;5002119;28;20045;-77
2021/12/15 00:43:24;;;;;;;3.08;2.83;;;9.60;99.90;;;;;;4984921;28;20046;-77
2021/12/15 00:45:49;;;;;;;6.30;3.05;;;9.60;99.90;;;;;;5002996;28;20053;-77
2021/12/15 00:48:15;;;;;;;3.80;2.67;;;9.60;99.90;;;;;;5002316;28;20262;-77
2021/12/15 00:50:43;;;;;;;5.88;3.55;;;9.60;99.90;;;;;;5002746;28;20042;-77
2021/12/15 00:53:09;;;;;;;4.38;4.05;;;9.60;99.90;;;;;;5001535;28;20092;-77
2021/12/15 00:55:36;;;;;;;2.42;2.30;;;9.60;99.90;;;;;;5002375;28;20050;-77
2021/12/15 00:58:03;;;;;;;2.53;2.40;;;9.60;99.90;;;;;;5001927;28;20128;-77
2021/12/15 01:00:36;;;;;;;3.75;3.45;;;9.60;99.90;;;;;;5002272;28;20038;-77
2021/12/15 01:03:03;;;;;;;5.22;2.90;;;9.60;99.90;;;;;;5001863;28;20046;-77
2021/12/15 01:05:34;;;;;;;3.13;2.92;;;9.60;99.90;;;;;;5002403;28;20100;-77
2021/12/15 01:08:01;;;;;;;3.53;2.25;;;9.60;99.90;;;;;;4984062;28;20046;-78
2021/12/15 01:10:40;;;;;;;5.30;2.67;;;9.60;99.90;;;;;;5002068;28;20129;-77
2021/12/15 01:21:06;;;;;;;4.97;2.65;;;9.60;99.90;;;;;;5002005;28;20097;-77
2021/12/15 01:23:33;;;;;;;2.60;2.40;;;9.60;99.90;;;;;;4967320;28;20172;-77
2021/12/15 01:26:12;;;;;;;4.63;2.75;;;9.60;99.90;;;;;;5001665;28;20069;-77
2021/12/15 01:28:38;;;;;;;5.00;3.58;;;9.60;99.90;;;;;;4998645;28;20049;-77
2021/12/15 01:31:06;;;;;;;2.80;2.53;;;9.60;99.90;;;;;;4982242;28;20061;-75
2021/12/15 01:33:32;;;;;;;3.40;3.10;;;9.60;99.90;;;;;;4985513;28;20042;-75
2021/12/15 01:35:59;;;;;;;6.63;4.50;;;9.60;99.90;;;;;;4986218;28;20073;-75
2021/12/15 01:38:30;;;;;;;9.80;2.83;;;9.60;99.90;;;;;;4967771;28;20560;-75
2021/12/15 01:40:56;;;;;;;4.82;3.40;;;9.60;99.90;;;;;;4986233;28;20046;-75
2021/12/15 01:43:50;;;;;;;3.08;2.88;;;9.60;99.90;;;;;;4986187;28;20113;-75
2021/12/15 01:49:11;;;;;;;4.38;4.05;;;9.60;99.90;;;;;;4968397;28;20181;-75
2021/12/15 01:51:37;;;;;;;5.05;3.78;;;9.60;99.90;;;;;;4985989;28;20117;-75
2021/12/15 01:54:03;;;;;;;10.25;3.92;;;9.60;99.90;;;;;;4985010;28;20065;-75
2021/12/15 01:56:29;;;;;;;5.43;3.47;;;9.60;99.90;;;;;;4986356;28;20046;-75
2021/12/15 01:58:56;;;;;;;5.63;4.30;;;9.60;99.90;;;;;;4985485;28;20383;-75
2021/12/15 02:01:22;;;;;;;4.05;3.28;;;9.60;99.90;;;;;;4986071;28;20050;-76
2021/12/15 02:03:48;;;;;;;3.97;2.17;;;9.60;99.90;;;;;;4986415;28;20820;-75
2021/12/15 02:06:14;;;;;;;7.80;6.05;;;9.60;99.90;;;;;;4968362;28;20129;-75
2021/12/15 02:08:40;;;;;;;8.73;4.55;;;9.60;99.90;;;;;;4984882;28;20050;-75
2021/12/15 02:11:08;;;;;;;6.70;4.18;;;9.60;99.90;;;;;;4963759;28;20122;-75
2021/12/15 02:13:34;;;;;;;3.92;3.45;;;9.60;99.90;;;;;;4966224;28;20093;-75
2021/12/15 02:16:02;;;;;;;6.60;3.83;;;9.60;99.90;;;;;;4965811;28;20062;-75
2021/12/15 02:18:31;;;;;;;4.32;3.95;;;9.60;99.90;;;;;;4966362;28;20126;-75
2021/12/15 02:21:10;;;;;;;5.63;3.63;;;9.60;99.90;;;;;;4964776;28;20054;-75
2021/12/15 02:23:42;;;;;;;5.53;3.80;;;9.60;99.90;;;;;;4965383;28;20298;-75
2021/12/15 02:26:22;;;;;;;9.00;4.25;;;9.60;99.90;;;;;;4964114;28;20563;-75
2021/12/15 02:28:51;;;;;;;9.65;3.95;;;9.60;99.90;;;;;;4964849;28;20039;-75
2021/12/15 02:31:36;;;;;;;4.82;4.18;;;9.60;99.90;;;;;;4965078;28;20258;-75
2021/12/15 02:39:18;;;;;;;11.70;4.47;;;9.60;99.90;;;;;;4964089;28;20058;-75
2021/12/15 02:41:45;;;;;;;5.30;4.15;;;9.60;99.90;;;;;;4965992;28;20042;-75
2021/12/15 02:44:17;;;;;;;5.53;5.03;;;9.60;99.90;;;;;;4965056;28;20047;-75
2021/12/15 02:46:43;;;;;;;;;;;9.60;99.90;;;;;;4966478;28;20517;-75
2021/12/15 02:49:11;;;;;;;8.75;5.05;;;9.60;99.90;;;;;;4965491;28;20008;-75
2021/12/15 02:51:38;;;;;;;3.28;3.05;;;9.60;99.90;;;;;;4965601;28;20039;-75
2021/12/15 02:54:07;;;;;;;5.75;4.13;;;9.60;99.90;;;;;;4964627;28;20034;-75
2021/12/15 02:56:33;;;;;;;4.75;4.32;;;9.60;99.90;;;;;;4965458;28;20417;-75
2021/12/15 02:59:03;;;;;;;4.43;3.97;;;9.60;99.90;;;;;;4965100;28;20069;-75
2021/12/15 03:01:52;;;;;;;6.30;2.78;;;9.60;99.90;;;;;;4965329;28;20071;-75
2021/12/15 03:06:55;;;;;;;4.70;3.67;;;9.60;99.90;;;;;;4965595;28;20050;-75
2021/12/15 03:17:35;;;;;;;4.28;3.97;;;9.60;99.90;;;;;;5004242;28;20562;-75
2021/12/15 03:20:01;;;;;;;5.38;4.25;;;9.60;99.90;;;;;;5003844;28;20121;-75
2021/12/15 03:22:27;;;;;;;3.50;3.28;;;9.50;99.90;;;;;;5004217;28;20050;-75
2021/12/15 03:24:52;;;;;;;4.93;3.67;;;9.50;99.90;;;;;;4985024;28;20488;-75
2021/12/15 03:27:24;;;;;;;6.32;4.63;;;9.50;99.90;;;;;;4986694;28;20527;-75
2021/12/15 03:35:47;;;;;;;4.18;3.85;;;9.50;99.90;;;;;;4966792;28;20066;-75
2021/12/15 03:38:13;;;;;;;4.70;3.50;;;9.50;99.90;;;;;;4965441;28;20524;-75
2021/12/15 03:40:41;;;;;;;4.57;4.00;;;9.50;99.90;;;;;;4966913;28;20058;-75
2021/12/15 03:43:12;;;;;;;5.80;3.33;;;9.50;99.90;;;;;;4966197;28;20097;-75
2021/12/15 03:45:40;;;;;;;6.10;3.28;;;9.50;99.90;;;;;;4984058;28;20070;-75
2021/12/15 03:48:11;;;;;;;3.72;3.42;;;9.50;99.90;;;;;;4983644;28;20125;-75
2021/12/15 03:50:36;;;;;;;10.50;6.07;;;9.50;99.90;;;;;;4984009;28;20630;-75
2021/12/15 03:53:04;;;;;;;4.57;4.13;;;9.50;99.90;;;;;;4983019;28;20096;-75
2021/12/15 03:55:32;;;;;;;5.60;4.63;;;9.50;99.90;;;;;;4982762;28;20564;-75
2021/12/15 03:57:59;;;;;;;7.05;4.65;;;9.50;99.90;;;;;;4966306;28;20077;-75
2021/12/15 04:00:28;;;;;;;9.05;4.53;;;9.50;99.90;;;;;;4982731;28;20042;-75
2021/12/15 04:02:54;;;;;;;9.35;4.93;;;9.50;99.90;;;;;;4983600;28;20337;-75
2021/12/15 04:05:20;;;;;;;6.18;5.70;;;9.50;99.90;;;;;;4966349;28;20544;-75
2021/12/15 04:07:47;;;;;;;5.07;3.78;;;9.50;99.90;;;;;;4965890;28;20446;-75
2021/12/15 04:10:15;;;;;;;4.85;3.58;;;9.50;99.90;;;;;;4983517;28;20042;-75
2021/12/15 04:12:42;;;;;;;7.07;4.78;;;9.50;99.90;;;;;;4965739;28;20104;-75
2021/12/15 04:17:44;;;;;;;5.80;4.47;;;9.50;99.90;;;;;;4983298;28;20054;-75
2021/12/15 04:20:14;;;;;;;3.83;3.53;;;9.50;99.90;;;;;;4965754;28;20129;-75
2021/12/15 04:22:41;;;;;;;5.22;4.80;;;9.50;99.90;;;;;;4982546;28;20046;-75
2021/12/15 04:25:09;;;;;;;5.28;4.15;;;9.50;99.90;;;;;;4983169;28;20104;-75
2021/12/15 04:27:35;;;;;;;8.68;3.70;;;9.50;99.90;;;;;;4982145;28;20524;-75
2021/12/15 04:30:02;;;;;;;8.75;5.03;;;9.50;99.90;;;;;;4979770;28;20046;-75
2021/12/15 04:32:33;;;;;;;5.05;3.70;;;9.50;99.90;;;;;;5002652;28;20096;-75
2021/12/15 04:34:59;;;;;;;3.38;3.08;;;9.50;99.90;;;;;;5002358;28;20128;-75
2021/12/15 04:37:24;;;;;;;5.13;4.07;;;9.50;99.90;;;;;;5002475;28;20133;-76
2021/12/15 04:39:50;;;;;;;4.93;3.40;;;9.50;99.90;;;;;;4984706;28;20053;-75
2021/12/15 04:42:19;;;;;;;4.57;4.25;;;9.50;99.90;;;;;;4985567;28;20472;-75
2021/12/15 04:44:45;;;;;;;3.30;2.45;;;9.50;99.90;;;;;;4984840;28;20042;-75
2021/12/15 04:47:12;;;;;;;7.65;3.45;;;9.50;99.90;;;;;;5002161;28;20054;-75
2021/12/15 04:49:45;;;;;;;5.50;3.92;;;9.50;99.90;;;;;;5002687;28;20053;-75
2021/12/15 04:52:12;;;;;;;4.20;3.90;;;9.50;99.90;;;;;;5002175;28;20373;-75
2021/12/15 04:54:39;;;;;;;7.55;3.85;;;9.50;99.90;;;;;;4984037;28;20077;-75
2021/12/15 04:57:05;;;;;;;4.78;3.97;;;9.50;99.90;;;;;;4984495;28;20046;-75
2021/12/15 04:59:32;;;;;;;2.80;2.55;;;9.40;99.90;;;;;;5002272;28;20050;-75
2021/12/15 05:01:57;;;;;;;4.65;4.22;;;9.50;99.90;;;;;;5002015;28;20078;-75
2021/12/15 05:04:23;;;;;;;3.63;3.42;;;9.40;99.90;;;;;;4983859;28;20092;-75
2021/12/15 05:06:49;;;;;;;3.80;3.60;;;9.50;99.90;;;;;;5002793;28;20050;-75
2021/12/15 05:09:15;;;;;;;5.00;3.45;;;9.40;99.90;;;;;;4983602;28;20038;-75
2021/12/15 05:11:41;;;;;;;5.65;2.50;;;9.40;99.90;;;;;;5002046;28;20056;-75
2021/12/15 05:14:06;;;;;;;4.05;3.47;;;9.40;99.90;;;;;;4984267;28;20121;-75
2021/12/15 05:16:32;;;;;;;5.15;4.10;;;9.40;99.90;;;;;;5001960;28;20516;-75
2021/12/15 05:18:59;;;;;;;4.85;4.45;;;9.40;99.90;;;;;;4984394;28;20049;-75
2021/12/15 05:21:25;;;;;;;5.85;4.03;;;9.50;99.90;;;;;;5002067;28;20121;-75
2021/12/15 05:23:56;;;;;;;5.55;5.07;;;9.50;99.90;;;;;;4983433;28;20038;-76
2021/12/15 05:26:22;;;;;;;5.47;3.63;;;9.40;99.90;;;;;;5001743;28;20096;-75
2021/12/15 05:28:49;;;;;;;4.13;3.67;;;9.40;99.90;;;;;;4997706;28;20129;-75
2021/12/15 05:31:14;;;;;;;4.25;3.42;;;9.40;99.90;;;;;;4982385;28;20049;-75
2021/12/15 05:33:40;;;;;;;4.30;2.78;;;9.40;99.90;;;;;;4982280;28;20050;-75
2021/12/15 05:36:06;;;;;;;3.55;2.05;;;9.40;99.90;;;;;;4982113;28;20046;-75
2021/12/15 05:38:31;;;;;;;3.45;2.72;;;9.40;99.90;;;;;;4981365;28;20074;-75
2021/12/15 05:40:59;;;;;;;7.13;3.95;;;9.50;99.90;;;;;;4982197;28;20057;-75
2021/12/15 05:43:25;;;;;;;3.55;3.05;;;9.40;99.90;;;;;;4982664;28;20153;-75
2021/12/15 05:45:52;;;;;;;4.13;3.25;;;9.50;99.90;;;;;;4982018;28;20497;-76
2021/12/15 05:48:19;;;;;;;3.03;2.78;;;9.50;99.90;;;;;;4982781;28;20049;-75
2021/12/15 05:50:46;;;;;;;4.40;2.55;;;9.50;99.90;;;;;;4964903;28;20405;-75
2021/12/15 05:53:12;;;;;;;5.57;3.42;;;9.40;99.90;;;;;;4963740;28;20046;-75
2021/12/15 05:55:40;;;;;;;2.88;2.70;;;9.50;99.90;;;;;;4964863;28;20066;-75
2021/12/15 05:58:05;;;;;;;4.30;2.53;;;9.50;99.90;;;;;;4981992;28;20078;-75
2021/12/15 06:00:40;;;;;;;3.45;3.05;;;9.50;99.90;;;;;;4964883;28;20085;-75
2021/12/15 06:03:06;;;;;;;2.35;2.00;;;9.50;99.90;;;;;;4981789;28;20038;-75
2021/12/15 06:05:33;;;;;;;3.30;2.50;;;9.50;99.90;;;;;;4982134;28;20068;-75
2021/12/15 06:07:58;;;;;;;4.22;2.20;;;9.50;99.90;;;;;;4980223;28;20113;-75
2021/12/15 06:10:26;;;;;;;4.43;3.05;;;9.50;99.90;;;;;;4982124;28;20564;-75
2021/12/15 06:12:53;;;;;;;8.00;2.50;;;9.50;99.90;;;;;;4937555;29;20056;-75
2021/12/15 06:15:22;;;;;;;4.93;3.75;;;9.50;99.90;;;;;;4942082;29;20051;-75
2021/12/15 06:17:56;;;;;;;2.10;2.00;;;9.50;99.90;;;;;;4944420;28;20054;-75
2021/12/15 06:20:23;;;;;;;5.35;4.38;;;9.50;99.90;;;;;;4940824;28;20049;-76
2021/12/15 06:22:48;;;;;;;2.17;2.08;;;9.50;99.90;;;;;;4942390;28;20065;-75
2021/12/15 06:25:14;;;;;;;2.90;2.70;;;9.50;99.90;;;;;;4935477;29;20479;-75
2021/12/15 06:27:40;;;;;;;4.90;3.72;;;9.50;99.90;;;;;;4935787;29;20042;-75
2021/12/15 06:30:08;;;;;;;3.72;3.35;;;9.50;99.90;;;;;;4942687;28;20493;-75
2021/12/15 06:32:34;;;;;;;10.23;3.75;;;9.50;99.90;;;;;;4932368;28;20502;-77
2021/12/15 06:34:59;;;;;;;5.00;4.03;;;9.50;99.90;;;;;;4957446;28;20051;-77
2021/12/15 06:37:25;;;;;;;5.07;2.40;;;9.50;99.90;;;;;;4944740;29;20501;-78
2021/12/15 06:39:50;;;;;;;4.72;2.53;;;9.50;99.90;;;;;;4946331;29;20126;-79
2021/12/15 06:42:16;;;;;;;3.90;2.95;;;9.50;99.90;;;;;;4939178;29;20050;-77
2021/12/15 06:44:42;;;;;;;2.88;2.10;;;9.50;99.90;;;;;;4939126;29;20050;-77
2021/12/15 07:00:48;;;;;;;2.10;2.00;;;9.60;99.90;;;;;;4944387;28;20101;-78
2021/12/15 07:03:17;;;;;;;2.50;2.30;;;9.60;99.90;;;;;;4932347;28;20047;-80
2021/12/15 07:05:44;;;;;;;2.20;1.92;;;9.50;99.90;;;;;;4933502;29;20252;-77
2021/12/15 07:08:10;;;;;;;2.35;2.22;;;9.60;99.90;;;;;;4940192;29;20142;-77
2021/12/15 07:10:41;;;;;;;4.45;2.80;;;9.60;99.90;;;;;;4942406;28;20406;-79
2021/12/15 07:13:07;;;;;;;2.78;2.17;;;9.60;99.90;;;;;;4984136;28;20073;-78
2021/12/15 07:15:34;;;;;;;3.13;2.13;;;9.60;99.90;;;;;;4981327;28;20597;-82
2021/12/15 07:18:04;;;;;;;4.65;2.95;;;9.60;99.90;;;;;;4979411;28;20184;-79
2021/12/15 07:23:03;;;;;;;;;;;9.60;99.90;;;;;;4976290;28;20082;-77
2021/12/15 07:25:31;;;;;;;1.23;1.23;;;9.60;99.90;;;;;;4957049;28;20133;-77
2021/12/15 07:27:57;;;;;;;1.98;1.77;;;9.60;99.90;;;;;;4983752;28;20147;-76
2021/12/15 07:30:24;;;;;;;3.33;2.40;;;9.50;99.90;;;;;;4999029;28;20507;-77
2021/12/15 07:32:49;;;;;;;2.45;1.20;;;9.50;99.90;;;;;;4970290;28;20041;-77
2021/12/15 07:35:18;;;;;;;1.85;1.48;;;9.60;99.90;;;;;;5003405;28;20499;-77
2021/12/15 07:37:44;;;;;;;3.88;1.20;;;9.50;99.90;;;;;;4985456;28;20508;-77
2021/12/15 07:40:20;;;;;;;1.50;1.40;;;9.50;99.90;;;;;;4986271;28;20222;-77
2021/12/15 07:42:57;;;;;;;10.05;2.22;;;9.50;99.90;;;;;;4986381;28;20096;-76
2021/12/15 07:45:25;;;;;;;2.60;1.77;;;9.50;99.90;;;;;;4986441;28;20404;-77
2021/12/15 07:47:54;;;;;;;1.08;1.08;;;9.50;99.90;;;;;;5003001;28;20046;-78
2021/12/15 07:50:20;;;;;;;2.10;2.00;;;9.50;99.90;;;;;;4983791;28;20077;-77
2021/12/15 07:52:47;;;;;;;2.55;2.20;;;9.50;99.90;;;;;;4977760;28;20048;-77
2021/12/15 07:55:13;;;;;;;1.42;1.33;;;9.60;99.90;;;;;;4982805;28;20081;-77
2021/12/15 07:57:39;;;;;;;1.88;1.77;;;9.50;99.90;;;;;;4981935;28;20074;-77
2021/12/15 08:00:07;;;;;;;1.60;0.95;;;9.50;99.90;;;;;;4983071;28;20488;-77
2021/12/15 08:02:33;;;;;;;1.40;1.30;;;9.50;99.90;;;;;;4982327;28;20515;-76
2021/12/15 08:04:59;;;;;;;2.33;2.15;;;9.50;99.90;;;;;;4964349;28;20046;-79
2021/12/15 08:07:24;;;;;;;2.38;2.20;;;9.50;99.90;;;;;;4963360;28;20046;-78
2021/12/15 08:09:50;;;;;;;1.55;1.42;;;9.50;99.90;;;;;;4981772;28;20121;-78
2021/12/15 08:12:16;;;;;;;1.73;0.80;;;9.50;99.90;;;;;;4982871;28;20145;-77
2021/12/15 08:14:42;;;;;;;0.73;0.73;;;9.50;99.90;;;;;;4963869;28;20050;-78
2021/12/15 08:17:08;;;;;;;2.05;1.20;;;9.50;99.90;;;;;;4965152;28;20050;-78
2021/12/15 08:19:34;;;;;;;1.00;1.00;;;9.50;99.90;;;;;;4982981;28;20042;-78
2021/12/15 08:21:59;;;;;;;3.47;1.45;;;9.50;99.90;;;;;;4981996;28;20547;-79
2021/12/15 08:24:25;;;;;;;1.15;0.90;;;9.50;99.90;;;;;;4983005;28;20042;-78
2021/12/15 08:26:51;;;;;;;1.85;1.30;;;9.50;99.90;;;;;;4982814;28;20042;-79
2021/12/15 08:29:16;;;;;;;2.15;1.95;;;9.50;99.90;;;;;;4991435;28;20041;-78
2021/12/15 08:31:42;;;;;;;1.73;1.63;;;9.50;99.90;;;;;;4991707;28;20525;-78
2021/12/15 08:34:08;;;;;;;1.63;1.52;;;9.50;99.90;;;;;;4965014;28;20449;-80
2021/12/15 08:36:35;;;;;;;1.48;1.42;;;9.40;99.90;;;;;;4965168;28;20058;-79
2021/12/15 08:39:04;;;;;;;2.20;1.85;;;9.40;99.90;;;;;;4964609;28;20058;-80
2021/12/15 08:41:30;;;;;;;1.05;1.05;;;9.40;99.90;;;;;;4964928;28;20057;-79
2021/12/15 08:43:57;;;;;;;0.75;0.75;;;9.40;99.90;;;;;;4982612;28;20081;-78
2021/12/15 08:46:31;;;;;;;1.52;1.17;;;9.40;99.90;;;;;;4982718;28;20141;-78
2021/12/15 08:48:58;;;;;;;2.25;1.50;;;9.40;99.90;;;;;;4964757;28;20104;-78
2021/12/15 08:51:26;;;;;;;2.28;1.35;;;9.40;99.90;;;;;;4982822;28;20457;-78
2021/12/15 08:53:57;;;;;;;3.58;1.33;;;9.40;99.90;;;;;;4981304;28;20086;-78
2021/12/15 08:56:23;;;;;;;1.38;1.27;;;9.40;99.90;;;;;;4964999;28;20425;-79
2021/12/15 08:58:49;;;;;;;1.60;1.40;;;9.40;99.90;;;;;;4949304;28;20046;-78
2021/12/15 09:01:14;;;;;;;3.35;3.05;;;9.50;99.90;;;;;;4982277;28;20049;-78
2021/12/15 09:03:42;;;;;;;2.42;2.25;;;9.40;99.90;;;;;;4982272;28;20093;-78
2021/12/15 09:06:09;;;;;;;3.53;1.80;;;9.40;99.90;;;;;;4966282;28;20123;-78
2021/12/15 09:08:35;;;;;;;2.50;2.38;;;9.40;99.90;;;;;;4966494;28;20492;-78
2021/12/15 09:11:07;;;;;;;3.00;2.60;;;9.40;99.90;;;;;;4962899;28;20046;-78
2021/12/15 09:13:33;;;;;;;3.60;3.17;;;9.40;99.90;;;;;;4981002;28;20047;-78
2021/12/15 09:16:02;;;;;;;2.17;1.92;;;9.40;99.90;;;;;;4964578;28;20046;-78
2021/12/15 09:18:28;;;;;;;7.30;2.65;;;9.40;99.90;;;;;;4948640;28;20497;-78
2021/12/15 09:20:54;;;;;;;1.55;1.45;;;9.50;99.90;;;;;;4982055;28;20057;-78
2021/12/15 09:23:20;;;;;;;3.22;2.22;;;9.40;99.90;;;;;;4964183;28;20117;-78
2021/12/15 09:25:47;;;;;;;2.92;2.17;;;9.50;99.90;;;;;;4982397;28;20681;-78
2021/12/15 09:28:14;;;;;;;3.20;2.80;;;9.40;99.90;;;;;;4980244;28;20100;-78
2021/12/15 09:30:44;;;;;;;1.67;1.52;;;9.50;99.90;;;;;;5001945;28;20096;-78
2021/12/15 09:33:22;;;;;;;5.88;3.38;;;9.50;99.90;;;;;;5001405;28;20121;-78
2021/12/15 09:35:48;;;;;;;2.83;2.28;;;9.50;99.90;;;;;;4984557;28;20517;-78
2021/12/15 09:38:16;;;;;;;1.27;1.17;;;9.50;99.90;;;;;;4982807;28;20451;-78
2021/12/15 09:40:43;;;;;;;2.88;1.55;;;9.50;99.90;;;;;;4984141;28;20536;-78
2021/12/15 09:43:10;;;;;;;1.90;1.80;;;9.50;99.90;;;;;;4983927;28;20051;-78
2021/12/15 09:45:48;;;;;;;0.98;0.98;;;9.50;99.90;;;;;;5001370;28;20075;-78
2021/12/15 10:04:29;;;;;;;3.15;1.35;;;9.50;99.90;;;;;;4968610;28;20057;-78
2021/12/15 10:17:20;;;;;;;6.50;2.03;;;9.60;99.90;;;;;;4967928;28;20065;-78
2021/12/15 10:18:06;;;;;;;1.02;1.02;;;9.60;99.90;;;;;;4967500;28;20065;-79
2021/12/15 10:20:35;;;;;;;1.60;1.50;;;9.60;99.90;;;;;;4968231;28;20136;-78
2021/12/15 10:23:04;;;;;;;6.68;1.90;;;9.60;99.90;;;;;;4967005;28;20041;-79
2021/12/15 10:25:37;;;;;;;1.60;1.20;;;9.60;99.90;;;;;;4984944;28;20070;-78
2021/12/15 10:28:09;;;;;;;1.63;1.38;;;9.60;99.90;;;;;;4984669;28;20053;-79
2021/12/15 10:30:39;;;;;;;1.67;1.57;;;9.60;99.90;;;;;;5004112;28;20377;-78
2021/12/15 10:33:18;;;;;;;0.52;0.50;;;9.60;99.90;;;;;;5004446;28;20378;-78
2021/12/15 10:35:44;;;;;;;1.42;1.08;;;9.60;99.90;;;;;;4987180;28;20112;-79
2021/12/15 10:38:29;;;;;;;1.98;1.85;;;9.60;99.90;;;;;;4991334;28;20660;-84
2021/12/15 10:41:05;;;;;;;1.13;1.13;;;9.60;99.90;;;;;;4983471;28;20054;-78
2021/12/15 10:43:48;;;;;;;1.80;1.15;;;9.60;99.90;;;;;;4965655;28;20043;-78
2021/12/15 10:46:20;;;;;;;3.80;1.67;;;9.70;99.90;;;;;;4965314;28;20490;-78
2021/12/15 10:48:56;;;;;;;5.50;0.68;;;9.60;99.90;;;;;;4948886;28;20109;-78
2021/12/15 10:51:33;;;;;;;1.42;1.33;;;9.70;99.90;;;;;;4947462;28;20141;-79
2021/12/15 10:54:08;;;;;;;4.55;1.25;;;9.70;99.90;;;;;;4947989;28;20057;-79
2021/12/15 10:56:38;;;;;;;0.22;0.22;;;9.70;99.90;;;;;;4965210;28;20050;-79
2021/12/15 10:59:11;;;;;;;1.30;0.57;;;9.70;99.90;;;;;;4964028;28;20051;-79
2021/12/15 11:02:06;;;;;;;0.80;0.80;;;9.70;99.90;;;;;;4947960;28;20082;-78
2021/12/15 11:04:31;;;;;;;2.47;1.63;;;9.70;99.90;;;;;;4931138;28;20510;-78
2021/12/15 11:07:17;;;;;;;0.60;0.60;;;9.70;99.90;;;;;;4964026;28;20057;-77
2021/12/15 11:10:24;;;;;;;3.47;1.02;;;9.70;99.90;;;;;;4958212;28;20108;-77
2021/12/15 11:13:03;;;;;;;0.50;0.50;;;9.70;99.90;;;;;;4984855;28;20077;-77
2021/12/15 11:15:36;;;;;;;0.30;0.30;;;9.70;99.90;;;;;;4984554;28;20512;-77
2021/12/15 11:18:36;;;;;;;0.95;0.88;;;9.70;99.90;;;;;;4984170;28;20100;-79
2021/12/15 11:21:08;;;;;;;1.92;1.23;;;9.70;99.90;;;;;;4943525;28;20065;-80
2021/12/15 11:23:35;;;;;;;0.52;0.52;;;9.70;99.90;;;;;;4989775;28;20557;-77
2021/12/15 11:26:11;;;;;;;2.55;0.57;;;9.70;99.90;;;;;;4970299;28;20444;-77
2021/12/15 11:28:45;;;;;;;1.23;0.88;;;9.70;99.90;;;;;;4991562;28;20052;-77
2021/12/15 11:31:24;;;;;;;0.98;0.90;;;9.70;99.90;;;;;;4989314;28;20046;-78
2021/12/15 11:33:53;;;;;;;13.02;0.93;;;9.70;99.90;;;;;;4999376;28;20185;-78
2021/12/15 11:36:31;;;;;;;0.47;0.45;;;9.70;99.90;;;;;;4993486;28;20045;-79
2021/12/15 11:39:10;;;;;;;0.95;0.95;;;9.70;99.90;;;;;;4983816;28;20096;-79
2021/12/15 11:41:43;;;;;;;0.65;0.43;;;9.70;99.90;;;;;;4964538;28;20047;-78
2021/12/15 11:44:11;;;;;;;;;;;9.70;99.90;;;;;;4965262;28;20047;-78
2021/12/15 11:47:02;;;;;;;0.45;0.45;;;9.70;99.90;;;;;;4971164;28;20008;-78
2021/12/15 11:49:31;;;;;;;2.97;0.65;;;9.70;99.90;;;;;;4949732;28;20055;-78
2021/12/15 11:52:07;;;;;;;0.63;0.63;;;9.70;99.90;;;;;;4981782;28;20067;-78
2021/12/15 11:54:39;;;;;;;1.60;1.50;;;9.70;99.90;;;;;;4963369;28;20121;-79
2021/12/15 11:57:22;;;;;;;1.33;1.23;;;9.70;99.90;;;;;;4980368;28;20416;-76
2021/12/15 11:59:53;;;;;;;1.35;1.23;;;9.70;99.90;;;;;;4983668;28;20049;-77
2021/12/15 12:02:24;;;;;;;0.57;0.57;;;9.70;99.90;;;;;;4950083;28;20056;-78
2021/12/15 12:04:53;;;;;;;0.63;0.20;;;9.60;99.90;;;;;;4983766;28;20046;-79
2021/12/15 12:07:32;;;;;;;0.40;0.40;;;9.60;99.90;;;;;;4962881;28;20058;-77
2021/12/15 12:10:13;;;;;;;0.63;0.63;;;9.70;99.90;;;;;;4967861;28;20122;-78
2021/12/15 12:12:50;;;;;;;0.77;0.77;;;9.60;99.90;;;;;;4959311;28;20062;-78
2021/12/15 12:15:17;;;;;;;0.63;0.63;;;9.60;99.90;;;;;;4961906;28;20500;-77
2021/12/15 12:17:47;;;;;;;0.28;0.28;;;9.60;99.90;;;;;;4961788;28;20132;-76
2021/12/15 12:20:20;;;;;;;0.20;0.20;;;9.60;99.90;;;;;;4982745;28;20038;-77
2021/12/15 12:22:48;;;;;;;0.40;0.40;;;9.60;99.90;;;;;;4963318;28;20074;-79
2021/12/15 12:25:20;;;;;;;0.40;0.40;;;9.60;99.90;;;;;;4964951;28;20054;-77
2021/12/15 12:27:48;;;;;;;0.52;0.52;;;9.60;99.90;;;;;;4983445;28;20077;-78
2021/12/15 12:30:19;;;;;;;1.00;0.93;;;9.60;99.90;;;;;;4964389;28;20089;-77
2021/12/15 12:32:45;;;;;;;0.28;0.28;;;9.50;99.90;;;;;;4961394;28;20050;-77
2021/12/15 12:35:15;;;;;;;0.15;0.15;;;9.60;99.90;;;;;;4979201;28;20042;-77
2021/12/15 12:37:41;;;;;;;0.70;0.70;;;9.50;99.90;;;;;;4987353;28;20125;-78
2021/12/15 12:40:20;;;;;;;0.50;0.50;;;9.50;99.90;;;;;;4989430;28;20088;-79
2021/12/15 12:42:46;;;;;;;0.10;0.10;;;9.50;99.90;;;;;;4970946;28;20434;-77
2021/12/15 12:45:38;;;;;;;0.40;0.40;;;9.50;99.90;;;;;;4973452;28;20131;-77
2021/12/15 12:57:57;;;;;;;0.10;0.10;;;9.50;99.90;;;;;;4984575;28;20060;-78
2021/12/15 12:59:53;;;;;;;2.03;0.55;;;9.50;99.90;;;;;;4956009;28;20057;-78
2021/12/15 13:05:05;;;;;;;0.13;0.13;;;9.50;99.90;;;;;;4980096;28;20485;-78
2021/12/15 13:07:53;;;;;;;5.40;0.60;;;9.50;99.90;;;;;;4981790;28;20081;-78
2021/12/15 13:10:40;;;;;;;0.68;0.68;;;9.50;99.90;;;;;;4965664;28;20053;-78
2021/12/15 13:13:14;;;;;;;3.90;0.60;;;9.50;99.90;;;;;;4968296;28;20034;-78
2021/12/15 13:15:40;;;;;;;0.28;0.28;;;9.50;99.90;;;;;;4964794;28;20042;-78
2021/12/15 13:18:11;;;;;;;0.40;0.40;;;9.50;99.90;;;;;;4964289;28;20046;-78
2021/12/15 13:20:37;;;;;;;0.63;0.63;;;9.50;99.90;;;;;;4980126;28;20066;-77
2021/12/15 13:28:45;;;;;;;0.10;0.10;;;9.50;99.90;;;;;;4969912;28;20560;-78
2021/12/15 13:31:28;;;;;;;0.35;0.35;;;9.50;99.90;;;;;;4988249;28;20635;-78
2021/12/15 13:34:00;;;;;;;7.30;0.75;;;9.50;99.90;;;;;;5003832;28;20057;-76
2021/12/15 13:36:29;;;;;;;0.20;0.20;;;9.50;99.90;;;;;;4984210;28;20049;-76
2021/12/15 13:39:06;;;;;;;0.40;0.40;;;9.50;99.90;;;;;;4968994;28;20042;-77
2021/12/15 13:42:00;;;;;;;0.77;0.77;;;9.50;99.90;;;;;;4966968;28;20050;-77
2021/12/15 13:44:35;;;;;;;0.20;0.20;;;9.50;99.90;;;;;;4962447;28;20097;-77
2021/12/15 13:47:13;;;;;;;0.57;0.20;;;9.50;99.90;;;;;;4982374;28;20054;-78
2021/12/15 13:49:40;;;;;;;0.55;0.55;;;9.50;99.90;;;;;;4984509;28;20074;-77
2021/12/15 13:52:14;;;;;;;2.40;0.98;;;9.50;99.90;;;;;;4984687;28;20047;-77
2021/12/15 13:54:40;;;;;;;0.17;0.17;;;9.50;99.90;;;;;;4985724;28;20073;-77
2021/12/15 13:57:12;;;;;;;0.20;0.20;;;9.50;99.90;;;;;;4985234;28;20077;-77
2021/12/15 13:59:55;;;;;;;1.45;1.17;;;9.50;99.90;;;;;;4968385;28;20408;-77
2021/12/15 14:02:35;;;;;;;5.53;1.58;;;9.50;99.90;;;;;;4968325;28;20046;-77
2021/12/15 14:05:03;;;;;;;0.45;0.28;;;9.50;99.90;;;;;;4965963;28;20047;-77
2021/12/15 14:07:47;;;;;;;0.43;0.43;;;9.50;99.90;;;;;;4969776;28;20100;-79
2021/12/15 14:10:13;;;;;;;0.30;0.30;;;9.50;99.90;;;;;;4994716;28;20276;-77
2021/12/15 14:12:44;;;;;;;0.95;0.95;;;9.50;99.90;;;;;;4975848;28;20623;-78
2021/12/15 14:15:24;;;;;;;0.63;0.63;;;9.50;99.90;;;;;;4975465;28;20096;-78
2021/12/15 14:18:18;;;;;;;0.38;0.38;;;9.50;99.90;;;;;;4970788;28;20038;-78
2021/12/15 14:20:58;;;;;;;1.42;0.75;;;9.50;99.90;;;;;;4975372;28;20108;-78
2021/12/15 14:23:42;;;;;;;1.77;0.60;;;9.50;99.90;;;;;;4971142;28;20073;-80
2021/12/15 14:26:13;;;;;;;0.55;0.55;;;9.50;99.90;;;;;;4983891;28;20081;-79
2021/12/15 14:28:46;;;;;;;0.05;0.00;;;9.40;99.90;;;;;;4973183;28;20046;-79
2021/12/15 14:31:14;;;;;;;0.75;0.73;;;9.50;99.90;;;;;;4974444;28;20103;-79
2021/12/15 14:33:45;;;;;;;0.45;0.45;;;9.50;99.90;;;;;;4976213;28;20050;-79
2021/12/15 14:36:24;;;;;;;15.88;0.70;;;9.40;99.90;;;;;;4958883;28;20065;-79
2021/12/15 14:39:05;;;;;;;0.65;0.65;;;9.40;99.90;;;;;;4959614;28;20050;-79
2021/12/15 14:41:33;;;;;;;0.30;0.30;;;9.40;99.90;;;;;;4972650;28;20053;-79
2021/12/15 14:44:14;;;;;;;0.20;0.20;;;9.40;99.90;;;;;;4985452;28;20045;-79
2021/12/15 14:46:50;;;;;;;0.52;0.52;;;9.40;99.90;;;;;;4979247;28;20066;-81